Time;durP1;ratioP1;P1;durP2;ratioP2;P2;SDS_P1;SDS_P2;PMS_P1;PMS_P2;Temp;Humidity;BMP_temperature;BMP_pressure;BME280_temperature;BME280_humidity;BME280_pressure;Samples;Min_cycle;Max_cycle;Signal;HPM_P1;HPM_P2
2021/12/23 00:02:14;;;;;;;7.03;5.50;;;;;;;2.78;49.21;95497.50;4933368;29;20198;-79
2021/12/23 00:04:42;;;;;;;6.47;5.63;;;;;;;2.68;48.93;95475.19;4932968;29;20191;-80
2021/12/23 00:07:09;;;;;;;8.97;5.83;;;;;;;2.48;49.01;95462.66;4933246;29;20191;-80
2021/12/23 00:10:02;;;;;;;8.33;5.63;;;;;;;2.75;48.90;95494.22;4933052;29;20250;-83
2021/12/23 00:12:29;;;;;;;10.50;6.03;;;;;;;2.71;49.14;95491.91;4933817;29;20707;-81
2021/12/23 00:14:57;;;;;;;10.47;7.23;;;;;;;2.41;48.91;95448.66;4933459;29;20595;-83
2021/12/23 00:17:39;;;;;;;9.27;6.67;;;;;;;2.72;49.11;95499.41;4934027;29;20242;-81
2021/12/23 00:25:32;;;;;;;9.73;7.00;;;;;;;2.66;49.16;95499.69;4987596;28;20280;-82
2021/12/23 00:27:58;;;;;;;9.67;6.73;;;;;;;2.65;49.24;95502.28;4993295;28;20201;-82
2021/12/23 00:30:27;;;;;;;10.33;6.80;;;;;;;2.63;49.19;95502.34;4993339;28;20467;-82
2021/12/23 00:32:56;;;;;;;10.17;6.80;;;;;;;2.60;49.16;95502.50;4994866;28;20220;-83
2021/12/23 00:35:23;;;;;;;10.80;7.07;;;;;;;2.46;49.37;95482.09;4994963;28;20203;-85
2021/12/23 00:37:57;;;;;;;12.07;7.70;;;;;;;2.12;49.31;95429.81;4993434;28;20667;-84
2021/12/23 00:40:24;;;;;;;13.90;8.07;;;;;;;2.56;49.52;95501.00;4992794;28;20413;-80
2021/12/23 00:42:51;;;;;;;11.37;7.90;;;;;;;2.55;49.97;95506.09;4992810;28;20650;-87
2021/12/23 00:45:18;;;;;;;10.93;7.97;;;;;;;2.52;49.53;95507.06;4993697;28;20196;-85
2021/12/23 00:47:46;;;;;;;12.23;8.10;;;;;;;2.51;49.61;95503.72;4994218;28;20200;-80
2021/12/23 00:50:13;;;;;;;14.87;8.30;;;;;;;2.50;49.51;95506.31;4994282;28;20569;-87
2021/12/23 00:52:41;;;;;;;14.50;8.63;;;;;;;2.40;49.40;95489.94;4993502;28;20197;-84
2021/12/23 00:55:11;;;;;;;19.43;8.53;;;;;;;2.48;49.54;95503.06;4992303;28;20197;-83
2021/12/23 00:57:40;;;;;;;11.60;9.07;;;;;;;2.14;49.78;95438.94;4993774;28;20213;-80
2021/12/23 01:00:09;;;;;;;13.17;8.33;;;;;;;2.45;49.80;95488.84;4994292;28;20220;-87
2021/12/23 01:02:37;;;;;;;15.77;9.47;;;;;;;2.43;50.00;95485.59;4994297;28;20197;-86
2021/12/23 01:05:05;;;;;;;14.30;8.83;;;;;;;2.09;49.74;95433.28;4994373;28;20229;-82
2021/12/23 01:07:32;;;;;;;18.23;9.73;;;;;;;2.41;49.83;95484.00;4994141;28;20197;-82
2021/12/23 01:09:59;;;;;;;12.10;8.47;;;;;;;2.38;49.85;95482.47;4994306;28;20941;-83
2021/12/23 01:12:32;;;;;;;13.17;9.10;;;;;;;1.56;49.88;95349.94;4993889;28;20608;-82
2021/12/23 01:15:11;;;;;;;15.27;9.77;;;;;;;2.35;49.95;95482.59;4993326;28;20273;-82
2021/12/23 01:17:53;;;;;;;15.97;9.93;;;;;;;2.30;49.97;95474.41;4992693;28;20221;-81
2021/12/23 01:20:27;;;;;;;17.23;10.30;;;;;;;2.04;50.37;95434.38;4991794;28;20543;-80
2021/12/23 01:22:55;;;;;;;10.83;8.47;;;;;;;2.30;50.13;95481.97;4992837;28;20228;-81
2021/12/23 01:25:23;;;;;;;16.03;10.17;;;;;;;2.29;50.23;95484.56;4992124;28;20200;-80
2021/12/23 01:27:50;;;;;;;17.23;9.87;;;;;;;2.25;50.05;95474.63;4991480;28;20204;-79
2021/12/23 01:30:20;;;;;;;13.60;9.63;;;;;;;2.25;50.25;95476.31;4991464;28;20197;-78
2021/12/23 01:32:49;;;;;;;17.63;10.10;;;;;;;2.06;50.17;95453.59;4991257;28;20189;-78
2021/12/23 01:35:17;;;;;;;15.77;10.00;;;;;;;2.21;50.03;95477.34;4991426;28;20271;-79
2021/12/23 01:37:46;;;;;;;14.93;9.70;;;;;;;1.82;50.34;95410.09;4991262;28;20228;-81
2021/12/23 01:40:17;;;;;;;14.63;10.37;;;;;;;2.17;50.44;95470.78;4992469;28;20207;-83
2021/12/23 01:42:45;;;;;;;16.37;9.40;;;;;;;2.13;50.26;95460.00;4993433;28;20189;-86
2021/12/23 01:45:13;;;;;;;15.67;9.57;;;;;;;2.11;50.48;95459.25;4993056;28;20668;-83
2021/12/23 01:47:40;;;;;;;13.23;9.20;;;;;;;2.10;50.33;95461.84;4993321;28;20205;-81
2021/12/23 01:50:09;;;;;;;14.10;10.07;;;;;;;2.08;50.35;95459.41;4993052;28;20186;-86
2021/12/23 01:52:36;;;;;;;14.03;9.83;;;;;;;2.06;50.86;95453.59;4991995;28;20193;-81
2021/12/23 01:55:05;;;;;;;14.73;8.80;;;;;;;2.05;50.66;95456.19;4992552;28;20203;-87
2021/12/23 01:57:33;;;;;;;13.13;8.50;;;;;;;2.05;50.46;95461.25;4993157;28;20217;-82
2021/12/23 02:00:02;;;;;;;13.87;9.20;;;;;;;2.03;50.43;95465.50;4992350;28;20951;-85
2021/12/23 02:02:30;;;;;;;13.07;8.67;;;;;;;2.02;50.23;95464.69;4992789;28;20232;-83
2021/12/23 02:05:00;;;;;;;11.57;9.03;;;;;;;1.94;50.45;95454.13;4994766;28;20204;-82
2021/12/23 02:07:27;;;;;;;12.27;8.33;;;;;;;2.01;50.36;95473.97;4992872;28;20276;-81
2021/12/23 02:09:56;;;;;;;12.70;8.13;;;;;;;2.00;50.59;95467.31;4993237;28;20192;-82
2021/12/23 02:12:26;;;;;;;13.17;9.13;;;;;;;1.99;50.55;95478.28;4991101;28;20224;-79
2021/12/23 02:14:53;;;;;;;15.33;8.33;;;;;;;1.98;50.61;95470.75;4992271;28;20603;-81
2021/12/23 02:17:19;;;;;;;15.80;10.10;;;;;;;1.97;50.69;95481.75;4991894;28;20225;-80
2021/12/23 02:19:47;;;;;;;16.27;9.67;;;;;;;1.96;50.55;95490.19;4990946;28;20193;-81
2021/12/23 02:22:15;;;;;;;17.90;10.80;;;;;;;1.93;50.88;95482.75;4990995;28;20196;-77
2021/12/23 02:24:41;;;;;;;16.87;10.17;;;;;;;1.90;50.89;95482.88;4990429;28;20192;-80
2021/12/23 02:27:10;;;;;;;14.43;10.07;;;;;;;1.87;51.06;95488.06;4990948;28;20193;-79
2021/12/23 02:29:37;;;;;;;13.67;10.00;;;;;;;1.85;50.94;95478.03;4990519;28;20205;-83
2021/12/23 02:32:05;;;;;;;16.17;10.27;;;;;;;1.81;51.06;95478.25;4993332;28;20208;-78
2021/12/23 02:34:32;;;;;;;18.23;10.33;;;;;;;1.54;51.25;95434.84;4994796;28;20672;-79
2021/12/23 02:37:01;;;;;;;16.20;10.70;;;;;;;1.18;51.52;95383.44;4995188;28;20193;-82
2021/12/23 02:39:30;;;;;;;14.60;10.07;;;;;;;1.45;51.08;95429.31;4994855;28;20207;-84
2021/12/23 02:41:57;;;;;;;17.73;10.87;;;;;;;1.64;51.55;95459.63;4994759;28;20181;-78
2021/12/23 02:44:24;;;;;;;14.90;9.60;;;;;;;1.71;51.29;95482.84;4994825;28;20208;-79
2021/12/23 02:46:51;;;;;;;18.93;10.47;;;;;;;1.70;51.46;95481.22;4994429;28;20193;-77
2021/12/23 02:49:19;;;;;;;15.67;9.73;;;;;;;1.68;51.57;95485.50;4994879;28;20203;-85
2021/12/23 02:51:46;;;;;;;13.50;9.73;;;;;;;1.64;51.54;95476.44;4994263;28;20246;-76
2021/12/23 02:54:12;;;;;;;15.57;9.90;;;;;;;1.63;51.67;95478.13;4994201;28;20604;-77
2021/12/23 02:56:41;;;;;;;12.17;9.10;;;;;;;1.53;51.83;95461.78;4993971;28;20193;-78
2021/12/23 02:59:07;;;;;;;12.80;9.30;;;;;;;1.60;51.80;95472.41;4994232;28;20217;-77
2021/12/23 03:01:34;;;;;;;14.03;9.53;;;;;;;1.58;51.77;95469.94;4994669;28;20189;-79
2021/12/23 03:04:01;;;;;;;13.03;9.20;;;;;;;1.55;51.69;95460.00;4994469;28;20185;-78
2021/12/23 03:06:28;;;;;;;13.67;9.37;;;;;;;1.55;51.58;95461.69;4994382;28;20831;-78
2021/12/23 03:08:59;;;;;;;16.17;9.77;;;;;;;1.52;51.83;95461.84;4993793;28;20212;-79
2021/12/23 03:11:29;;;;;;;15.70;10.03;;;;;;;1.50;52.09;95456.84;4993858;28;20228;-78
2021/12/23 03:13:58;;;;;;;14.80;9.90;;;;;;;1.47;51.93;95452.78;4993834;28;20193;-78
2021/12/23 03:16:28;;;;;;;16.13;10.53;;;;;;;1.45;52.24;95452.00;4993990;28;20201;-77
2021/12/23 03:18:55;;;;;;;13.33;9.40;;;;;;;1.44;52.37;95450.38;4994065;28;20217;-78
2021/12/23 03:21:22;;;;;;;11.83;8.80;;;;;;;1.43;52.23;95452.97;4994243;28;20197;-78
2021/12/23 03:23:51;;;;;;;17.50;10.80;;;;;;;1.40;52.32;95445.53;4994144;28;20196;-79
2021/12/23 03:26:18;;;;;;;17.03;10.20;;;;;;;1.37;52.50;95454.00;4994244;28;20209;-78
2021/12/23 03:28:45;;;;;;;15.90;10.07;;;;;;;1.35;52.76;95449.94;4993466;28;20190;-80
2021/12/23 03:31:13;;;;;;;13.93;9.80;;;;;;;1.33;52.62;95452.50;4993861;28;20676;-78
2021/12/23 03:33:40;;;;;;;14.83;10.90;;;;;;;0.88;52.60;95388.03;4994065;28;20201;-79
2021/12/23 03:36:07;;;;;;;16.80;11.23;;;;;;;1.30;52.98;95450.13;4996227;28;20200;-79
2021/12/23 03:38:34;;;;;;;18.03;10.23;;;;;;;1.07;52.74;95417.50;4995418;28;20735;-79
2021/12/23 03:41:01;;;;;;;17.93;10.33;;;;;;;1.02;52.84;95415.16;4995862;28;20197;-78
2021/12/23 03:43:29;;;;;;;11.57;9.67;;;;;;;1.24;53.02;95453.69;4992452;28;20580;-79
2021/12/23 03:45:56;;;;;;;18.00;11.83;;;;;;;1.21;53.04;95466.44;4993526;28;20197;-80
2021/12/23 03:48:24;;;;;;;18.67;11.67;;;;;;;1.20;53.22;95463.97;4993934;28;20193;-81
2021/12/23 03:50:51;;;;;;;18.20;12.30;;;;;;;1.18;53.22;95466.56;4993928;28;20198;-78
2021/12/23 03:53:18;;;;;;;19.83;12.47;;;;;;;1.15;53.44;95465.84;4994248;28;20200;-79
2021/12/23 03:55:46;;;;;;;17.97;11.57;;;;;;;1.13;53.60;95455.03;4993171;28;20239;-79
2021/12/23 03:58:13;;;;;;;19.73;11.93;;;;;;;1.10;53.63;95461.00;4993530;28;20246;-85
2021/12/23 04:00:40;;;;;;;20.40;13.00;;;;;;;1.10;53.77;95467.75;4993962;28;20200;-80
2021/12/23 04:03:07;;;;;;;23.50;12.83;;;;;;;0.93;53.90;95444.06;4994542;28;20612;-80
2021/12/23 04:05:36;;;;;;;19.37;12.50;;;;;;;1.07;53.97;95460.31;5001327;28;20676;-77
2021/12/23 04:08:03;;;;;;;20.93;12.97;;;;;;;1.04;53.68;95468.81;5000675;28;20204;-82
2021/12/23 04:10:30;;;;;;;20.20;12.90;;;;;;;1.03;53.90;95472.19;4993917;28;20193;-79
2021/12/23 04:12:57;;;;;;;19.30;11.97;;;;;;;1.03;53.88;95468.88;4993606;28;20232;-85
2021/12/23 04:15:24;;;;;;;25.50;13.23;;;;;;;0.88;54.04;95445.13;4993405;28;20653;-79
2021/12/23 04:17:52;;;;;;;19.87;13.73;;;;;;;0.54;54.30;95397.81;4993206;28;20225;-82
2021/12/23 04:20:21;;;;;;;21.63;13.50;;;;;;;0.40;54.23;95384.06;4993138;28;20201;-82
2021/12/23 04:22:52;;;;;;;17.53;11.90;;;;;;;0.98;53.78;95477.41;4993840;28;20287;-81
2021/12/23 04:25:20;;;;;;;21.07;13.00;;;;;;;0.27;53.65;95364.47;4993285;28;20193;-80
2021/12/23 04:27:50;;;;;;;19.27;12.57;;;;;;;-0.09;53.91;95307.16;4993108;28;20552;-82
2021/12/23 04:30:17;;;;;;;16.93;11.80;;;;;;;0.94;54.14;95473.38;4992628;28;20691;-79
2021/12/23 04:32:44;;;;;;;21.40;12.57;;;;;;;0.93;54.10;95473.44;4993029;28;20205;-80
2021/12/23 04:35:12;;;;;;;19.20;12.70;;;;;;;0.83;54.14;95459.59;4993126;28;20197;-81
2021/12/23 04:37:39;;;;;;;19.87;12.47;;;;;;;0.51;54.04;95406.28;4992307;28;20252;-80
2021/12/23 04:40:10;;;;;;;19.03;11.73;;;;;;;0.89;54.19;95471.94;4992227;28;20665;-81
2021/12/23 04:42:38;;;;;;;20.90;11.93;;;;;;;0.86;54.00;95472.03;4992276;28;20201;-78
2021/12/23 04:45:08;;;;;;;20.90;12.47;;;;;;;0.87;53.86;95474.53;4993073;28;20189;-78
2021/12/23 04:50:13;;;;;;;18.53;11.60;;;;;;;0.84;54.23;95471.31;4978675;23;20264;-79
2021/12/23 04:52:40;;;;;;;19.53;11.57;;;;;;;0.74;54.02;95459.06;4953729;29;20680;-79
2021/12/23 04:55:10;;;;;;;20.80;12.63;;;;;;;0.55;54.32;95430.44;4955203;28;20194;-82
2021/12/23 04:57:38;;;;;;;19.70;11.67;;;;;;;0.80;54.13;95477.34;4953696;29;20209;-82
2021/12/23 05:00:08;;;;;;;22.37;12.90;;;;;;;0.80;54.17;95477.34;4953532;29;20191;-80
2021/12/23 05:02:35;;;;;;;27.77;14.07;;;;;;;0.78;54.23;95479.06;4953858;29;20217;-80
2021/12/23 05:05:01;;;;;;;22.13;13.57;;;;;;;0.78;53.99;95481.59;4953518;29;20198;-80
2021/12/23 05:07:28;;;;;;;28.47;14.17;;;;;;;0.77;54.07;95482.47;4953918;29;20187;-85
2021/12/23 05:09:55;;;;;;;20.70;13.77;;;;;;;0.74;53.93;95484.25;4954577;29;20202;-88
2021/12/23 05:12:24;;;;;;;24.83;14.57;;;;;;;0.73;54.27;95484.28;4955386;29;20569;-82
2021/12/23 05:14:51;;;;;;;28.00;14.93;;;;;;;0.72;54.54;95478.44;4954352;29;20199;-82
2021/12/23 05:17:18;;;;;;;31.57;15.63;;;;;;;0.69;54.33;95478.56;4956055;29;20187;-82
2021/12/23 05:19:45;;;;;;;25.77;15.43;;;;;;;0.68;54.52;95476.91;4954057;29;20233;-80
2021/12/23 05:22:12;;;;;;;27.00;15.27;;;;;;;0.18;53.84;95395.84;4954601;29;20281;-79
2021/12/23 05:24:39;;;;;;;24.27;14.60;;;;;;;0.68;54.52;95484.47;4954182;29;20205;-79
2021/12/23 05:27:06;;;;;;;25.60;15.60;;;;;;;0.67;54.44;95479.50;4953487;29;20199;-79
2021/12/23 05:29:34;;;;;;;27.83;15.57;;;;;;;0.33;54.43;95425.41;4954184;29;20182;-81
2021/12/23 05:32:01;;;;;;;27.37;16.97;;;;;;;0.66;54.34;95487.94;4953362;29;20198;-84
2021/12/23 05:34:28;;;;;;;30.37;17.53;;;;;;;0.66;54.31;95482.91;4953180;29;20205;-80
2021/12/23 05:36:54;;;;;;;32.63;17.67;;;;;;;0.65;54.28;95478.75;4946269;29;20203;-81
2021/12/23 05:39:21;;;;;;;31.53;18.27;;;;;;;-1.26;54.44;95187.59;4931773;29;20218;-81
2021/12/23 05:41:48;;;;;;;36.90;19.60;;;;;;;0.61;54.28;95488.13;4931291;29;20195;-78
2021/12/23 05:44:15;;;;;;;42.40;21.23;;;;;;;0.46;54.37;95469.34;4931299;29;20199;-82
2021/12/23 05:46:43;;;;;;;40.83;22.17;;;;;;;0.60;54.76;95475.56;4931097;29;20195;-76
2021/12/23 05:49:10;;;;;;;42.47;23.93;;;;;;;0.58;54.40;95483.19;4931475;29;20202;-76
2021/12/23 05:51:37;;;;;;;38.43;22.43;;;;;;;0.56;54.38;95481.59;4960674;28;20665;-87
2021/12/23 05:54:04;;;;;;;47.07;24.00;;;;;;;0.56;54.75;95489.16;4970257;28;20202;-81
2021/12/23 05:56:31;;;;;;;49.60;26.13;;;;;;;0.54;54.53;95484.19;4973041;28;20194;-84
2021/12/23 05:58:58;;;;;;;44.73;25.47;;;;;;;0.54;54.58;95486.69;4971770;28;20228;-78
2021/12/23 06:01:25;;;;;;;41.40;25.27;;;;;;;0.54;54.74;95478.34;4971411;28;20204;-82
2021/12/23 06:03:54;;;;;;;43.60;24.73;;;;;;;0.34;54.74;95442.16;4969658;28;20205;-80
2021/12/23 06:06:21;;;;;;;52.47;27.27;;;;;;;0.55;54.62;95483.28;4974819;28;20193;-82
2021/12/23 06:08:48;;;;;;;48.97;28.37;;;;;;;0.02;54.94;95405.63;4988806;28;20255;-80
2021/12/23 06:11:15;;;;;;;44.67;26.10;;;;;;;0.57;54.84;95488.28;4988783;28;20580;-83
2021/12/23 06:13:42;;;;;;;49.53;27.97;;;;;;;0.56;54.56;95492.47;4986928;28;20193;-84
2021/12/23 06:16:10;;;;;;;46.07;27.83;;;;;;;0.60;54.71;95490.66;4989193;28;20213;-84
2021/12/23 06:18:37;;;;;;;48.67;27.93;;;;;;;0.44;54.67;95462.78;4989667;28;20249;-82
2021/12/23 06:21:05;;;;;;;51.13;28.23;;;;;;;0.64;54.80;95500.56;4987495;28;20189;-83
2021/12/23 06:23:32;;;;;;;45.27;26.30;;;;;;;0.23;54.68;95422.44;4988111;28;20200;-84
2021/12/23 06:26:00;;;;;;;49.63;27.67;;;;;;;0.46;54.45;95464.31;4987744;28;20208;-84
2021/12/23 06:28:27;;;;;;;53.07;29.23;;;;;;;0.64;54.04;95451.94;4987383;28;20205;-84
2021/12/23 06:30:54;;;;;;;45.93;28.30;;;;;;;1.28;53.76;95506.50;4987658;28;20204;-82
2021/12/23 06:33:21;;;;;;;46.33;27.63;;;;;;;1.61;53.26;95497.56;4987668;28;20205;-84
2021/12/23 06:35:47;;;;;;;45.67;27.60;;;;;;;1.97;52.81;95502.75;4987331;28;20209;-82
2021/12/23 06:38:16;;;;;;;47.33;27.10;;;;;;;2.35;52.72;95497.72;4988696;28;20189;-81
2021/12/23 06:40:43;;;;;;;50.20;27.37;;;;;;;2.65;52.36;95487.13;4987930;28;20240;-86
2021/12/23 06:43:10;;;;;;;48.23;27.43;;;;;;;3.10;52.15;95486.69;4988288;28;20193;-84
2021/12/23 06:45:36;;;;;;;44.00;26.90;;;;;;;3.06;51.69;95416.16;4987837;28;20188;-81
2021/12/23 06:48:04;;;;;;;46.33;27.23;;;;;;;3.69;51.35;95464.44;4987934;28;20220;-86
2021/12/23 06:50:31;;;;;;;45.47;28.17;;;;;;;4.24;50.92;95492.00;4988629;28;20235;-88
2021/12/23 06:52:58;;;;;;;46.87;28.83;;;;;;;4.49;50.45;95456.06;4989006;28;20194;-86
2021/12/23 06:55:27;;;;;;;48.43;28.90;;;;;;;5.01;50.14;95488.72;4988036;28;20232;-88
2021/12/23 06:57:56;;;;;;;47.47;28.90;;;;;;;5.36;49.50;95486.75;4987686;28;20185;-83
2021/12/23 07:00:24;;;;;;;48.63;28.00;;;;;;;5.73;48.93;95485.47;4987156;28;20259;-82
2021/12/23 07:02:52;;;;;;;50.70;28.50;;;;;;;6.12;48.51;95485.78;4987931;28;20201;-87
2021/12/23 07:05:19;;;;;;;48.80;28.10;;;;;;;5.87;48.00;95389.91;4985486;28;20208;-84
2021/12/23 07:07:57;;;;;;;48.67;26.03;;;;;;;6.83;47.60;95485.69;4987721;28;20204;-84
2021/12/23 07:10:28;;;;;;;38.87;24.80;;;;;;;7.20;46.73;95488.44;4987447;28;20259;-83
2021/12/23 07:12:56;;;;;;;44.63;25.33;;;;;;;6.42;46.31;95323.09;4987108;28;20204;-83
2021/12/23 07:15:24;;;;;;;36.83;23.03;;;;;;;7.04;45.52;95361.47;4987488;28;20216;-84
2021/12/23 07:17:52;;;;;;;34.13;22.43;;;;;;;7.16;44.88;95332.66;4987289;28;20197;-78
2021/12/23 07:20:19;;;;;;;33.83;19.40;;;;;;;8.49;44.38;95506.28;4990852;28;20236;-83
2021/12/23 07:22:46;;;;;;;25.57;16.67;;;;;;;8.77;43.70;95495.00;4991260;28;20204;-83
2021/12/23 07:25:14;;;;;;;27.00;17.63;;;;;;;9.04;43.05;95510.09;4991066;28;20196;-82
2021/12/23 07:27:42;;;;;;;29.27;16.67;;;;;;;8.99;42.75;95454.31;4993841;28;20220;-85
2021/12/23 07:30:11;;;;;;;27.37;15.70;;;;;;;9.53;41.94;95514.25;4996009;28;20201;-82
2021/12/23 07:32:38;;;;;;;24.10;15.80;;;;;;;9.46;41.45;95460.28;4992715;28;20199;-80
2021/12/23 07:35:06;;;;;;;25.40;15.77;;;;;;;9.85;40.76;95499.13;4990687;28;20197;-81
2021/12/23 07:37:33;;;;;;;24.17;14.53;;;;;;;10.17;40.44;95516.38;4990771;28;20581;-82
2021/12/23 07:40:01;;;;;;;26.13;14.67;;;;;;;10.32;40.06;95509.31;4990836;28;20216;-81
2021/12/23 07:42:30;;;;;;;23.60;14.57;;;;;;;10.37;39.79;95515.72;4991113;28;20201;-78
2021/12/23 07:44:58;;;;;;;25.27;15.00;;;;;;;10.29;39.59;95523.16;4990808;28;20197;-83
2021/12/23 07:47:25;;;;;;;19.77;14.20;;;;;;;10.13;39.48;95523.44;4990674;28;20197;-80
2021/12/23 07:49:52;;;;;;;20.77;13.60;;;;;;;9.55;39.48;95448.56;4991361;28;20201;-81
2021/12/23 07:52:18;;;;;;;21.93;13.30;;;;;;;9.46;39.38;95469.69;4990844;28;20201;-82
2021/12/23 07:54:45;;;;;;;24.20;13.77;;;;;;;9.54;39.64;95521.81;4992540;28;20192;-82
2021/12/23 07:57:12;;;;;;;23.77;14.83;;;;;;;9.02;39.58;95468.56;4991950;28;20193;-80
2021/12/23 07:59:39;;;;;;;19.27;12.83;;;;;;;8.66;39.64;95437.09;4992701;28;20216;-81
2021/12/23 08:02:08;;;;;;;21.87;13.77;;;;;;;8.41;39.52;95432.06;4992493;28;20197;-82
2021/12/23 08:04:36;;;;;;;17.20;12.53;;;;;;;8.79;39.35;95516.91;4989518;28;20212;-80
2021/12/23 08:07:04;;;;;;;19.80;12.80;;;;;;;8.17;39.09;95406.53;4993882;28;20215;-82
2021/12/23 08:09:31;;;;;;;24.73;14.40;;;;;;;8.58;39.03;95472.50;4993327;28;20272;-82
2021/12/23 08:11:59;;;;;;;18.47;13.67;;;;;;;7.77;38.91;95383.75;4993025;28;20201;-82
2021/12/23 08:14:26;;;;;;;20.77;13.30;;;;;;;8.23;39.32;95480.78;4990205;28;20196;-80
2021/12/23 08:16:52;;;;;;;24.57;14.77;;;;;;;8.33;39.31;95515.84;4972854;28;20204;-80
2021/12/23 08:19:21;;;;;;;20.27;14.10;;;;;;;8.40;39.23;95510.25;4973018;28;20218;-80
2021/12/23 08:21:47;;;;;;;25.03;15.07;;;;;;;8.24;39.11;95477.31;4974398;28;20189;-80
2021/12/23 08:24:14;;;;;;;23.50;15.07;;;;;;;8.21;39.10;95492.03;4973872;28;20202;-79
2021/12/23 08:26:50;;;;;;;26.40;17.07;;;;;;;8.24;39.08;95515.53;4973836;28;20200;-81
2021/12/23 08:29:18;;;;;;;27.87;16.90;;;;;;;8.15;39.18;95508.53;4972757;28;20248;-80
2021/12/23 08:31:45;;;;;;;31.97;18.57;;;;;;;8.11;39.18;95504.53;4973576;28;20225;-80
2021/12/23 08:34:11;;;;;;;30.67;18.17;;;;;;;8.11;39.04;95496.09;4973206;28;20194;-81
2021/12/23 08:36:40;;;;;;;30.73;17.83;;;;;;;8.30;38.74;95504.13;4973530;28;20217;-81
2021/12/23 08:39:06;;;;;;;28.33;18.87;;;;;;;8.44;38.50;95505.78;4973337;28;20342;-80
2021/12/23 08:41:33;;;;;;;30.17;17.73;;;;;;;8.05;38.14;95434.47;4971835;28;20209;-80
2021/12/23 08:44:00;;;;;;;34.80;16.43;;;;;;;8.34;38.38;95492.00;4972681;28;20198;-80
2021/12/23 08:46:27;;;;;;;28.67;17.67;;;;;;;8.12;38.64;95503.66;4972976;28;20194;-80
2021/12/23 08:48:54;;;;;;;30.17;17.70;;;;;;;7.90;39.02;95495.78;4972901;28;20197;-79
2021/12/23 08:51:20;;;;;;;34.90;18.53;;;;;;;7.34;39.14;95424.81;4972588;28;20240;-80
2021/12/23 08:53:49;;;;;;;31.10;17.83;;;;;;;7.24;39.26;95444.91;4972545;28;20198;-80
2021/12/23 08:56:16;;;;;;;24.60;16.40;;;;;;;7.37;39.38;95484.84;4972528;28;20193;-80
2021/12/23 08:58:43;;;;;;;28.63;17.17;;;;;;;7.24;39.38;95472.91;4973025;28;20197;-80
2021/12/23 09:01:11;;;;;;;26.50;16.07;;;;;;;7.12;39.59;95468.59;4972425;28;20607;-80
2021/12/23 09:03:37;;;;;;;29.07;17.20;;;;;;;7.01;39.63;95466.72;4972898;28;20227;-80
2021/12/23 09:06:05;;;;;;;22.87;15.57;;;;;;;6.30;39.78;95372.91;4971386;28;20189;-80
2021/12/23 09:08:32;;;;;;;28.47;16.90;;;;;;;6.86;39.97;95462.59;4972605;28;20190;-80
2021/12/23 09:11:01;;;;;;;26.00;16.03;;;;;;;6.78;40.03;95445.31;4972922;28;20284;-80
2021/12/23 09:13:29;;;;;;;24.83;16.43;;;;;;;5.24;40.28;95213.59;4972796;28;20194;-81
2021/12/23 09:15:56;;;;;;;26.47;16.33;;;;;;;6.67;40.30;95432.44;4972657;28;20186;-81
2021/12/23 09:18:23;;;;;;;27.97;17.47;;;;;;;6.62;40.19;95433.66;4972614;28;20213;-81
2021/12/23 09:20:51;;;;;;;23.33;16.57;;;;;;;6.58;40.30;95433.00;4972519;28;20229;-81
2021/12/23 09:23:19;;;;;;;27.50;16.13;;;;;;;6.11;40.32;95357.19;4972646;28;20193;-82
2021/12/23 09:25:47;;;;;;;30.47;17.37;;;;;;;6.53;40.49;95425.69;4973076;28;20201;-85
2021/12/23 09:28:27;;;;;;;30.30;17.30;;;;;;;6.16;40.42;95366.16;4972434;28;20541;-81
2021/12/23 09:33:42;;;;;;;28.13;17.13;;;;;;;6.02;40.50;95349.22;4980824;28;20185;-88
2021/12/23 09:36:09;;;;;;;26.07;16.93;;;;;;;6.44;40.63;95416.09;4980722;28;20198;-86
2021/12/23 09:38:36;;;;;;;26.27;16.47;;;;;;;6.05;40.65;95360.94;4979432;28;20197;-79
2021/12/23 09:41:05;;;;;;;25.90;16.90;;;;;;;6.42;40.63;95420.44;4977455;28;20229;-87
2021/12/23 09:43:36;;;;;;;27.50;17.47;;;;;;;6.43;40.85;95413.63;4980740;28;20189;-92
2021/12/23 09:46:04;;;;;;;22.37;15.80;;;;;;;6.43;40.70;95408.53;4974890;28;20197;-89
2021/12/23 09:48:32;;;;;;;22.60;15.13;;;;;;;6.43;40.71;95406.00;4975106;28;20262;-90
2021/12/23 09:51:07;;;;;;;26.27;15.20;;;;;;;6.17;40.61;95365.25;4974987;28;20240;-93
2021/12/23 09:53:37;;;;;;;28.00;15.00;;;;;;;6.43;40.55;95385.69;4976060;28;20193;-86
2021/12/23 09:56:05;;;;;;;24.33;14.93;;;;;;;6.45;40.66;95383.88;4975603;28;20193;-90
2021/12/23 09:58:33;;;;;;;23.70;15.20;;;;;;;6.29;40.64;95344.16;4977439;28;20193;-89
2021/12/23 10:01:01;;;;;;;22.23;15.10;;;;;;;6.47;40.51;95370.16;4978159;28;20252;-87
2021/12/23 10:03:29;;;;;;;24.13;15.13;;;;;;;6.49;40.63;95372.59;4974194;28;20224;-81
2021/12/23 10:05:59;;;;;;;24.33;16.20;;;;;;;6.50;40.69;95371.69;4973441;28;20236;-81
2021/12/23 10:08:26;;;;;;;25.03;16.20;;;;;;;6.51;40.61;95363.97;4973520;28;20194;-83
2021/12/23 10:10:57;;;;;;;24.67;17.27;;;;;;;6.54;40.62;95355.34;4978561;28;20193;-84
2021/12/23 10:30:24;;;;;;;27.30;16.50;;;;;;;6.26;40.39;95262.28;4972495;28;20244;-80
2021/12/23 10:33:13;;;;;;;23.33;15.33;;;;;;;6.75;40.46;95338.72;4971675;28;20205;-80
2021/12/23 10:38:29;;;;;;;29.03;17.30;;;;;;;6.52;40.34;95291.13;4972097;28;20185;-80
2021/12/23 10:40:58;;;;;;;30.20;17.70;;;;;;;6.54;40.27;95279.94;4971215;28;20217;-80
2021/12/23 10:43:29;;;;;;;28.57;17.73;;;;;;;6.93;40.40;95341.81;4971497;28;20209;-86
2021/12/23 10:45:58;;;;;;;28.40;17.23;;;;;;;6.97;40.24;95332.25;4972460;28;20201;-83
2021/12/23 10:48:31;;;;;;;30.13;16.53;;;;;;;7.00;40.04;95324.44;4970319;28;20669;-83
2021/12/23 10:51:03;;;;;;;25.70;16.93;;;;;;;7.04;40.05;95316.50;4975623;28;20253;-80
2021/12/23 10:53:47;;;;;;;27.10;17.37;;;;;;;7.11;40.12;95316.09;4977274;28;20288;-85
2021/12/23 10:59:07;;;;;;;27.13;17.63;;;;;;;7.20;39.83;95300.22;4978989;28;20262;-81
2021/12/23 11:01:37;;;;;;;24.30;16.93;;;;;;;7.32;39.93;95293.50;4982864;28;20264;-83
2021/12/23 11:04:08;;;;;;;30.87;16.87;;;;;;;7.09;39.89;95241.66;4984391;28;20209;-81
2021/12/23 11:06:41;;;;;;;30.33;17.23;;;;;;;7.49;39.93;95290.63;4979830;28;20284;-88
2021/12/23 11:09:35;;;;;;;32.43;17.13;;;;;;;7.54;39.78;95286.84;4978868;28;20208;-89
2021/12/23 11:37:52;;;;;;;26.37;18.73;;;;;;;7.18;39.46;95165.53;4900284;29;20274;-87
2021/12/23 11:40:37;;;;;;;28.20;18.10;;;;;;;7.71;39.33;95246.72;4899906;29;20232;-84
2021/12/23 11:43:27;;;;;;;25.47;18.20;;;;;;;7.20;39.38;95157.78;4899574;29;20283;-85
2021/12/23 11:45:55;;;;;;;32.70;18.17;;;;;;;6.89;39.63;95100.59;4898627;29;20197;-83
2021/12/23 11:48:22;;;;;;;29.03;17.50;;;;;;;6.95;39.58;95110.31;4898262;29;20215;-83
2021/12/23 11:51:06;;;;;;;26.40;17.90;;;;;;;6.89;39.44;95092.97;4896067;29;20611;-80
2021/12/23 11:53:36;;;;;;;32.27;18.57;;;;;;;7.76;39.13;95226.81;4896444;29;20202;-83
2021/12/23 11:56:07;;;;;;;30.20;18.70;;;;;;;7.77;39.63;95228.44;4895786;29;20287;-80
2021/12/23 11:58:34;;;;;;;27.93;17.57;;;;;;;7.78;39.26;95214.81;4895480;29;20245;-81
2021/12/23 12:01:06;;;;;;;25.40;17.60;;;;;;;7.48;39.30;95166.88;4895469;29;20228;-79
2021/12/23 12:03:39;;;;;;;33.03;19.67;;;;;;;7.64;39.45;95184.41;4894545;29;20196;-81
2021/12/23 12:06:17;;;;;;;29.13;18.53;;;;;;;7.79;39.22;95212.16;4895006;29;20297;-79
2021/12/23 12:08:45;;;;;;;29.27;18.03;;;;;;;7.79;39.32;95214.69;4908127;29;20240;-80
2021/12/23 12:11:20;;;;;;;35.57;18.97;;;;;;;7.78;39.17;95215.63;4938883;28;20194;-81
2021/12/23 12:13:48;;;;;;;24.30;17.93;;;;;;;7.80;39.42;95213.78;4973533;28;20197;-80
2021/12/23 12:16:33;;;;;;;30.83;18.30;;;;;;;7.37;39.33;95133.72;4974034;28;20186;-84
2021/12/23 12:19:00;;;;;;;27.70;17.57;;;;;;;7.78;39.17;95202.91;4974292;28;20198;-80
2021/12/23 12:21:31;;;;;;;29.40;17.97;;;;;;;7.35;39.47;95140.66;4973482;28;20221;-80
2021/12/23 12:24:15;;;;;;;28.27;17.70;;;;;;;7.64;39.35;95184.41;4973703;28;20665;-79
2021/12/23 12:26:57;;;;;;;26.83;17.17;;;;;;;7.67;39.34;95190.09;4973395;28;20602;-82
2021/12/23 12:29:34;;;;;;;27.57;16.30;;;;;;;6.11;39.46;94946.69;4974301;28;20277;-79
2021/12/23 12:32:02;;;;;;;25.57;16.47;;;;;;;7.65;39.39;95181.78;4974087;28;20205;-81
2021/12/23 12:34:34;;;;;;;27.00;16.30;;;;;;;7.57;39.40;95166.22;4974676;28;20190;-79